createdAt,value
2023-02-27T00:01:07.389Z,4.37
2023-02-27T00:03:34.317Z,3.82
2023-02-27T00:06:01.123Z,3.77
2023-02-27T00:08:27.932Z,3.66
2023-02-27T00:10:54.726Z,3.86
2023-02-27T00:13:21.531Z,3.87
2023-02-27T00:15:50.420Z,3.85
2023-02-27T00:18:17.664Z,3.65
2023-02-27T00:20:44.492Z,3.63
2023-02-27T00:23:11.204Z,3.96
2023-02-27T00:25:37.914Z,3.72
2023-02-27T00:28:05.090Z,3.47
2023-02-27T00:30:32.145Z,3.67
2023-02-27T00:32:58.996Z,4.14
2023-02-27T00:35:26.107Z,3.91
2023-02-27T00:37:53.256Z,3.46
2023-02-27T00:40:20.125Z,3.76
2023-02-27T00:42:48.725Z,3.63
2023-02-27T00:45:15.718Z,3.68
2023-02-27T00:47:42.534Z,3.89
2023-02-27T00:50:10.116Z,3.56
2023-02-27T00:52:36.821Z,3.80
2023-02-27T00:55:03.634Z,4.03
2023-02-27T00:57:30.975Z,3.65
2023-02-27T00:59:57.858Z,3.45
2023-02-27T01:02:24.800Z,3.64
2023-02-27T01:04:51.784Z,3.44
2023-02-27T01:07:18.539Z,3.54
2023-02-27T01:09:45.361Z,3.31
2023-02-27T01:12:12.244Z,3.51
2023-02-27T01:14:39.052Z,3.27
2023-02-27T01:17:05.754Z,3.36
2023-02-27T01:19:32.620Z,3.63
2023-02-27T01:21:59.313Z,3.49
2023-02-27T01:24:26.764Z,3.52
2023-02-27T01:26:53.576Z,2.87
2023-02-27T01:29:20.426Z,3.20
2023-02-27T01:31:48.796Z,3.16
2023-02-27T01:34:16.103Z,3.31
2023-02-27T01:36:43.097Z,3.55
2023-02-27T01:39:10.166Z,3.33
2023-02-27T01:41:36.835Z,3.34
2023-02-27T01:44:12.269Z,3.66
2023-02-27T01:46:39.631Z,3.29
2023-02-27T01:49:15.772Z,3.40
2023-02-27T01:51:48.155Z,3.37
2023-02-27T01:54:20.053Z,3.48
2023-02-27T01:56:47.356Z,3.20
2023-02-27T01:59:15.838Z,3.34
2023-02-27T02:01:43.225Z,3.44
2023-02-27T02:04:22.834Z,3.25
2023-02-27T02:06:55.813Z,3.32
2023-02-27T02:09:23.765Z,3.48
2023-02-27T02:11:50.886Z,3.54
2023-02-27T02:14:17.748Z,3.50
2023-02-27T02:16:49.554Z,3.74
2023-02-27T02:19:34.668Z,3.73
2023-02-27T02:22:16.558Z,3.66
2023-02-27T02:24:52.573Z,3.73
2023-02-27T02:27:43.814Z,3.75
2023-02-27T02:30:38.936Z,3.78
2023-02-27T02:33:33.801Z,3.81
2023-02-27T02:36:18.726Z,3.81
2023-02-27T02:39:07.794Z,3.64
2023-02-27T02:41:45.985Z,3.66
2023-02-27T02:44:19.113Z,3.78
2023-02-27T02:47:02.789Z,3.57
2023-02-27T02:50:05.023Z,3.78
2023-02-27T02:52:54.097Z,3.81
2023-02-27T02:55:23.802Z,3.94
2023-02-27T02:58:02.870Z,3.43
2023-02-27T03:00:37.113Z,3.64
2023-02-27T03:03:12.778Z,4.09
2023-02-27T03:05:47.932Z,4.24
2023-02-27T03:08:20.516Z,3.90
2023-02-27T03:10:56.470Z,4.24
2023-02-27T03:13:49.183Z,4.09
2023-02-27T03:16:36.475Z,4.29
2023-02-27T03:19:11.452Z,4.13
2023-02-27T03:21:54.005Z,4.10
2023-02-27T03:24:30.369Z,3.89
2023-02-27T03:27:03.144Z,4.15
2023-02-27T03:29:46.051Z,3.85
2023-02-27T03:32:29.306Z,3.72
2023-02-27T03:34:56.665Z,3.77
2023-02-27T03:37:23.766Z,4.38
2023-02-27T03:40:06.616Z,4.25
2023-02-27T03:42:50.096Z,4.62
2023-02-27T03:45:22.823Z,4.67
2023-02-27T03:47:49.822Z,4.61
2023-02-27T03:50:16.857Z,4.48
2023-02-27T03:52:44.193Z,4.25
2023-02-27T03:55:17.756Z,4.41
2023-02-27T03:57:48.581Z,4.67
2023-02-27T04:00:19.461Z,4.74
2023-02-27T04:02:50.670Z,4.67
2023-02-27T04:05:19.781Z,4.07
2023-02-27T04:08:28.881Z,4.68
2023-02-27T04:11:16.644Z,4.69
2023-02-27T04:13:51.111Z,4.77
2023-02-27T04:16:42.451Z,4.70
2023-02-27T04:19:19.022Z,4.72
2023-02-27T04:21:51.672Z,4.80
2023-02-27T04:24:52.875Z,4.17
2023-02-27T04:27:35.382Z,4.60
2023-02-27T04:30:16.949Z,4.68
2023-02-27T04:33:06.548Z,4.27
2023-02-27T04:35:55.330Z,4.47
2023-02-27T04:38:35.440Z,4.40
2023-02-27T04:41:40.482Z,4.49
2023-02-27T04:44:10.206Z,4.54
2023-02-27T04:46:41.464Z,4.29
2023-02-27T04:49:26.455Z,4.51
2023-02-27T04:52:06.144Z,4.55
2023-02-27T04:54:43.571Z,4.21
2023-02-27T04:57:19.850Z,4.34
2023-02-27T04:59:51.704Z,4.65
2023-02-27T05:02:25.196Z,4.21
2023-02-27T05:04:57.100Z,4.57
2023-02-27T05:07:29.514Z,4.39
2023-02-27T05:10:04.024Z,4.56
2023-02-27T05:12:54.994Z,4.34
2023-02-27T05:15:49.614Z,4.33
2023-02-27T05:18:19.318Z,4.71
2023-02-27T05:20:52.157Z,4.59
2023-02-27T05:23:53.841Z,4.16
2023-02-27T05:26:55.049Z,4.47
2023-02-27T05:29:41.340Z,4.53
2023-02-27T05:32:10.773Z,4.62
2023-02-27T05:34:49.750Z,4.63
2023-02-27T05:37:38.986Z,4.24
2023-02-27T05:40:08.534Z,4.35
2023-02-27T05:42:42.269Z,4.35
2023-02-27T05:45:18.157Z,4.38
2023-02-27T05:47:52.812Z,4.30
2023-02-27T05:50:26.730Z,4.36
2023-02-27T05:52:56.494Z,4.42
2023-02-27T05:55:40.700Z,4.68
2023-02-27T05:58:19.424Z,4.69
2023-02-27T06:00:55.866Z,4.63
2023-02-27T06:03:23.199Z,4.51
2023-02-27T06:05:53.698Z,4.67
2023-02-27T06:08:22.052Z,4.51
2023-02-27T06:10:50.046Z,4.29
2023-02-27T06:13:19.959Z,4.68
2023-02-27T06:15:46.887Z,4.30
2023-02-27T06:18:15.039Z,4.67
2023-02-27T06:20:43.566Z,4.66
2023-02-27T06:23:11.107Z,4.49
2023-02-27T06:25:38.858Z,4.67
2023-02-27T06:28:06.165Z,4.35
2023-02-27T06:30:32.969Z,4.24
2023-02-27T06:33:01.096Z,4.16
2023-02-27T06:35:29.418Z,4.34
2023-02-27T06:37:59.429Z,4.43
2023-02-27T06:40:26.429Z,4.27
2023-02-27T06:42:53.112Z,4.28
2023-02-27T06:45:19.941Z,4.32
2023-02-27T06:47:46.731Z,4.30
2023-02-27T06:50:14.403Z,4.54
2023-02-27T06:52:41.985Z,4.54
2023-02-27T06:55:09.688Z,4.43
2023-02-27T06:57:37.070Z,4.67
2023-02-27T07:00:07.241Z,4.61
2023-02-27T07:02:34.029Z,4.51
2023-02-27T07:05:00.904Z,4.55
2023-02-27T07:07:37.935Z,4.92
2023-02-27T07:10:08.765Z,4.72
2023-02-27T07:12:35.471Z,4.62
2023-02-27T07:15:02.302Z,4.66
2023-02-27T07:17:29.066Z,4.50
2023-02-27T07:19:55.777Z,4.63
2023-02-27T07:22:22.525Z,4.74
2023-02-27T07:24:49.229Z,4.48
2023-02-27T07:27:15.994Z,4.63
2023-02-27T07:29:43.051Z,4.56
2023-02-27T07:32:09.980Z,5.03
2023-02-27T07:34:36.711Z,4.68
2023-02-27T07:37:03.422Z,4.77
2023-02-27T07:39:30.218Z,4.97
2023-02-27T07:41:57.000Z,4.56
2023-02-27T07:44:23.737Z,4.83
2023-02-27T07:46:50.620Z,4.91
2023-02-27T07:49:17.347Z,4.87
2023-02-27T07:51:44.040Z,4.68
2023-02-27T07:54:10.793Z,5.04
2023-02-27T07:56:37.558Z,5.13
2023-02-27T07:59:04.302Z,4.87
2023-02-27T08:01:30.991Z,4.67
2023-02-27T08:03:57.758Z,4.79
2023-02-27T08:06:25.119Z,4.86
2023-02-27T08:08:52.181Z,4.96
2023-02-27T08:11:19.336Z,4.82
2023-02-27T08:14:02.888Z,4.98
2023-02-27T08:16:31.499Z,4.94
2023-02-27T08:18:59.114Z,5.24
2023-02-27T08:21:26.765Z,5.37
2023-02-27T08:23:54.680Z,4.94
2023-02-27T08:26:22.344Z,5.23
2023-02-27T08:28:49.142Z,5.12
2023-02-27T08:31:16.286Z,5.06
2023-02-27T08:33:43.071Z,5.51
2023-02-27T08:36:10.309Z,5.31
2023-02-27T08:38:37.217Z,5.37
2023-02-27T08:41:04.173Z,5.20
2023-02-27T08:43:30.932Z,5.32
2023-02-27T08:45:57.824Z,5.27
2023-02-27T08:48:25.010Z,5.24
2023-02-27T08:50:52.427Z,5.57
2023-02-27T08:53:19.691Z,5.40
2023-02-27T08:55:51.125Z,5.64
2023-02-27T08:58:18.642Z,5.59
2023-02-27T09:00:45.995Z,5.82
2023-02-27T09:03:12.921Z,5.45
2023-02-27T09:05:40.678Z,5.38
2023-02-27T09:08:07.405Z,5.55
2023-02-27T09:10:34.946Z,5.57
2023-02-27T09:13:02.270Z,5.55
2023-02-27T09:15:30.252Z,5.94
2023-02-27T09:18:02.539Z,5.51
2023-02-27T09:20:31.898Z,5.85
2023-02-27T09:22:59.550Z,6.13
2023-02-27T09:25:27.402Z,6.12
2023-02-27T09:27:54.776Z,5.69
2023-02-27T09:30:22.151Z,6.15
2023-02-27T09:32:49.975Z,6.11
2023-02-27T09:35:17.768Z,6.11
2023-02-27T09:37:44.702Z,5.84
2023-02-27T09:40:20.148Z,6.20
2023-02-27T09:42:48.754Z,5.96
2023-02-27T09:45:24.352Z,5.80
2023-02-27T09:47:58.278Z,5.79
2023-02-27T09:50:43.818Z,6.19
2023-02-27T09:53:37.617Z,6.39
2023-02-27T09:56:09.540Z,6.44
2023-02-27T09:58:45.977Z,6.46
2023-02-27T10:01:28.354Z,6.15
2023-02-27T10:04:01.261Z,6.54
2023-02-27T10:06:52.404Z,6.28
2023-02-27T10:09:28.179Z,6.45
2023-02-27T10:12:00.995Z,6.55
2023-02-27T10:14:47.817Z,6.22
2023-02-27T10:17:29.138Z,6.46
2023-02-27T10:19:58.653Z,6.19
2023-02-27T10:22:34.581Z,6.19
2023-02-27T10:25:09.030Z,6.77
2023-02-27T10:27:45.716Z,6.83
2023-02-27T10:30:28.337Z,6.53
2023-02-27T10:33:17.932Z,6.87
2023-02-27T10:35:45.604Z,6.60
2023-02-27T10:38:17.893Z,6.44
2023-02-27T10:40:46.450Z,6.75
2023-02-27T10:43:19.254Z,6.86
2023-02-27T10:45:46.191Z,6.63
2023-02-27T10:48:14.676Z,6.85
2023-02-27T10:50:44.156Z,6.80
2023-02-27T10:53:23.628Z,6.71
2023-02-27T10:56:07.305Z,6.94
2023-02-27T10:58:38.160Z,7.06
2023-02-27T11:01:08.266Z,7.05
2023-02-27T11:03:41.606Z,6.89
2023-02-27T11:06:34.699Z,6.94
2023-02-27T11:09:21.689Z,7.04
2023-02-27T11:11:49.334Z,6.83
2023-02-27T11:14:34.534Z,6.94
2023-02-27T11:17:02.841Z,6.94
2023-02-27T11:19:33.626Z,7.09
2023-02-27T11:22:06.256Z,7.18
2023-02-27T11:24:33.554Z,7.00
2023-02-27T11:27:05.202Z,6.91
2023-02-27T11:29:34.341Z,7.11
2023-02-27T11:32:10.115Z,6.79
2023-02-27T11:34:40.959Z,6.63
2023-02-27T11:37:26.424Z,7.16
2023-02-27T11:40:02.537Z,6.93
2023-02-27T11:42:32.669Z,7.17
2023-02-27T11:46:13.632Z,7.28
2023-02-27T11:48:17.776Z,6.73
2023-02-27T11:51:09.289Z,7.18
2023-02-27T11:53:44.782Z,7.10
2023-02-27T11:56:39.273Z,7.15
2023-02-27T11:59:12.460Z,6.89
2023-02-27T12:01:42.931Z,6.72
2023-02-27T12:04:38.774Z,7.50
2023-02-27T12:07:27.905Z,7.29
2023-02-27T12:10:04.527Z,7.27
2023-02-27T12:12:57.642Z,7.20
2023-02-27T12:15:37.885Z,7.25
2023-02-27T12:18:18.836Z,7.45
2023-02-27T12:21:00.611Z,7.36
2023-02-27T12:23:49.129Z,7.34
2023-02-27T12:26:37.271Z,7.52
2023-02-27T12:29:15.710Z,7.46
2023-02-27T12:31:48.550Z,7.18
2023-02-27T12:34:21.159Z,7.54
2023-02-27T12:36:48.875Z,7.28
2023-02-27T12:39:21.299Z,7.14
2023-02-27T12:42:04.026Z,7.45
2023-02-27T12:45:02.985Z,7.67
2023-02-27T12:47:40.574Z,7.58
2023-02-27T12:50:15.607Z,7.65
2023-02-27T12:52:54.212Z,7.66
2023-02-27T12:55:30.625Z,7.29
2023-02-27T12:58:06.683Z,7.59
2023-02-27T13:01:01.009Z,7.30
2023-02-27T13:03:30.569Z,7.61
2023-02-27T13:05:59.309Z,7.52
2023-02-27T13:08:55.204Z,7.00
2023-02-27T13:11:51.430Z,7.03
2023-02-27T13:14:36.161Z,7.68
2023-02-27T13:17:14.550Z,7.24
2023-02-27T13:20:02.546Z,7.67
2023-02-27T13:22:41.338Z,7.64
2023-02-27T13:25:14.449Z,7.67
2023-02-27T13:27:52.166Z,7.76
2023-02-27T13:30:29.828Z,7.47
2023-02-27T13:33:30.489Z,7.37
2023-02-27T13:36:25.186Z,7.19
2023-02-27T13:38:54.634Z,7.39
2023-02-27T13:41:21.265Z,7.56
2023-02-27T13:43:53.242Z,7.38
2023-02-27T13:46:29.960Z,7.64
2023-02-27T13:49:05.737Z,7.79
2023-02-27T13:51:35.124Z,7.78
2023-02-27T13:54:14.213Z,7.90
2023-02-27T13:57:06.688Z,7.62
2023-02-27T13:59:36.915Z,7.49
2023-02-27T14:02:07.077Z,7.82
2023-02-27T14:04:37.582Z,7.74
2023-02-27T14:07:12.082Z,7.63
2023-02-27T14:09:42.777Z,7.55
2023-02-27T14:12:46.223Z,7.46
2023-02-27T14:15:22.572Z,7.81
2023-02-27T14:17:54.668Z,7.57
2023-02-27T14:20:30.931Z,7.76
2023-02-27T14:23:15.995Z,7.85
2023-02-27T14:25:49.708Z,7.92
2023-02-27T14:28:34.217Z,7.98
2023-02-27T14:31:06.157Z,7.89
2023-02-27T14:33:54.166Z,7.26
2023-02-27T14:36:22.392Z,7.47
2023-02-27T14:38:50.781Z,7.10
2023-02-27T14:41:27.308Z,7.47
2023-02-27T14:43:57.601Z,7.74
2023-02-27T14:46:40.195Z,7.66
2023-02-27T14:49:20.974Z,7.34
2023-02-27T14:51:48.277Z,7.38
2023-02-27T14:54:19.465Z,7.59
2023-02-27T14:57:06.358Z,7.60
2023-02-27T14:59:41.724Z,7.48
2023-02-27T15:02:23.013Z,7.72
2023-02-27T15:05:15.786Z,7.35
2023-02-27T15:07:47.505Z,7.74
2023-02-27T15:10:24.837Z,7.15
2023-02-27T15:12:52.475Z,7.38
2023-02-27T15:15:21.944Z,7.27
2023-02-27T15:17:53.202Z,7.60
2023-02-27T15:20:29.808Z,7.70
2023-02-27T15:22:58.531Z,7.53
2023-02-27T15:25:32.827Z,7.60
2023-02-27T15:28:17.201Z,7.70
2023-02-27T15:30:49.252Z,7.55
2023-02-27T15:33:17.691Z,7.69
2023-02-27T15:35:46.201Z,7.73
2023-02-27T15:38:24.910Z,7.68
2023-02-27T15:40:51.907Z,7.33
2023-02-27T15:43:19.303Z,7.31
2023-02-27T15:45:47.146Z,7.60
2023-02-27T15:48:15.554Z,7.63
2023-02-27T15:50:45.950Z,7.53
2023-02-27T15:53:17.681Z,7.05
2023-02-27T15:55:50.348Z,7.37
2023-02-27T15:58:24.427Z,7.66
2023-02-27T16:01:17.915Z,7.69
2023-02-27T16:03:47.856Z,7.58
2023-02-27T16:06:21.109Z,7.28
2023-02-27T16:08:51.336Z,7.48
2023-02-27T16:11:19.717Z,7.48
2023-02-27T16:13:46.491Z,7.30
2023-02-27T16:16:31.759Z,7.52
2023-02-27T16:19:00.663Z,7.53
2023-02-27T16:21:31.217Z,7.16
2023-02-27T16:24:19.492Z,7.43
2023-02-27T16:26:51.528Z,7.27
2023-02-27T16:29:21.321Z,7.35
2023-02-27T16:31:58.038Z,7.52
2023-02-27T16:34:47.590Z,7.15
2023-02-27T16:37:25.840Z,7.51
2023-02-27T16:39:54.450Z,6.97
2023-02-27T16:42:21.853Z,7.26
2023-02-27T16:44:48.774Z,7.21
2023-02-27T16:47:15.602Z,7.10
2023-02-27T16:49:44.521Z,6.82
2023-02-27T16:52:12.025Z,7.37
2023-02-27T16:54:38.828Z,7.11
2023-02-27T16:57:05.564Z,7.10
2023-02-27T16:59:36.291Z,7.10
2023-02-27T17:02:06.351Z,7.37
2023-02-27T17:04:33.292Z,7.37
2023-02-27T17:07:01.316Z,7.38
2023-02-27T17:09:29.380Z,7.36
2023-02-27T17:11:57.146Z,7.21
2023-02-27T17:14:24.622Z,7.09
2023-02-27T17:16:51.485Z,7.00
2023-02-27T17:19:21.467Z,7.09
2023-02-27T17:21:49.020Z,6.84
2023-02-27T17:24:15.773Z,7.04
2023-02-27T17:26:42.555Z,7.11
2023-02-27T17:29:09.853Z,7.29
2023-02-27T17:31:37.330Z,7.01
2023-02-27T17:34:05.684Z,6.82
2023-02-27T17:36:32.593Z,6.87
2023-02-27T17:39:02.731Z,6.99
2023-02-27T17:41:31.043Z,7.18
2023-02-27T17:43:59.256Z,7.27
2023-02-27T17:46:28.352Z,6.93
2023-02-27T17:48:56.378Z,6.92
2023-02-27T17:51:23.103Z,7.12
2023-02-27T17:53:49.806Z,6.90
2023-02-27T17:56:16.557Z,6.82
2023-02-27T17:58:45.581Z,6.73
2023-02-27T18:01:15.613Z,6.85
2023-02-27T18:03:44.144Z,6.82
2023-02-27T18:06:10.834Z,7.04
2023-02-27T18:08:37.667Z,6.79
2023-02-27T18:11:04.922Z,7.00
2023-02-27T18:13:31.604Z,7.10
2023-02-27T18:15:58.466Z,6.98
2023-02-27T18:18:25.268Z,7.17
2023-02-27T18:21:09.954Z,6.98
2023-02-27T18:23:38.293Z,6.73
2023-02-27T18:26:05.769Z,6.82
2023-02-27T18:28:32.869Z,6.82
2023-02-27T18:30:59.657Z,6.86
2023-02-27T18:33:27.518Z,6.84
2023-02-27T18:35:54.336Z,7.20
2023-02-27T18:38:21.113Z,6.88
2023-02-27T18:40:47.981Z,6.63
2023-02-27T18:43:14.747Z,6.80
2023-02-27T18:45:41.691Z,7.07
2023-02-27T18:48:08.490Z,6.92
2023-02-27T18:50:35.380Z,6.80
2023-02-27T18:53:02.193Z,6.44
2023-02-27T18:55:29.058Z,6.49
2023-02-27T18:57:55.770Z,6.60
2023-02-27T19:00:24.324Z,6.47
2023-02-27T19:02:51.475Z,6.89
2023-02-27T19:05:18.631Z,6.96
2023-02-27T19:07:45.671Z,6.46
2023-02-27T19:10:13.163Z,6.64
2023-02-27T19:12:39.926Z,6.61
2023-02-27T19:15:07.276Z,6.82
2023-02-27T19:17:33.997Z,6.57
2023-02-27T19:20:00.786Z,6.88
2023-02-27T19:22:29.601Z,6.73
2023-02-27T19:24:57.451Z,6.73
2023-02-27T19:27:24.327Z,6.61
2023-02-27T19:29:51.561Z,6.62
2023-02-27T19:32:18.442Z,6.81
2023-02-27T19:34:45.312Z,6.69
2023-02-27T19:37:12.415Z,6.93
2023-02-27T19:39:39.147Z,6.66
2023-02-27T19:42:06.026Z,6.47
2023-02-27T19:44:32.810Z,6.82
2023-02-27T19:47:00.313Z,6.68
2023-02-27T19:49:27.424Z,6.54
2023-02-27T19:51:54.153Z,6.65
2023-02-27T19:54:20.872Z,6.60
2023-02-27T19:56:47.922Z,6.48
2023-02-27T19:59:14.636Z,6.75
2023-02-27T20:01:41.615Z,6.79
2023-02-27T20:04:11.265Z,6.54
2023-02-27T20:06:42.375Z,6.51
2023-02-27T20:09:13.340Z,6.75
2023-02-27T20:11:41.425Z,6.74
2023-02-27T20:14:08.441Z,6.73
2023-02-27T20:16:37.009Z,6.58
2023-02-27T20:19:10.226Z,6.55
2023-02-27T20:21:36.740Z,7.14
2023-02-27T20:24:03.633Z,6.63
2023-02-27T20:26:40.552Z,7.07
2023-02-27T20:29:10.862Z,6.60
2023-02-27T20:31:40.359Z,7.08
2023-02-27T20:34:10.936Z,6.80
2023-02-27T20:36:39.417Z,6.78
2023-02-27T20:39:07.232Z,6.71
2023-02-27T20:41:34.774Z,6.67
2023-02-27T20:44:01.702Z,6.72
2023-02-27T20:46:32.099Z,6.55
2023-02-27T20:49:00.879Z,6.44
2023-02-27T20:51:30.760Z,6.81
2023-02-27T20:53:59.794Z,6.82
2023-02-27T20:56:35.336Z,6.55
2023-02-27T20:59:03.974Z,6.90
2023-02-27T21:01:31.888Z,6.33
2023-02-27T21:03:59.793Z,6.58
2023-02-27T21:06:27.104Z,6.20
2023-02-27T21:08:56.179Z,6.30
2023-02-27T21:11:28.274Z,6.47
2023-02-27T21:13:57.492Z,6.18
2023-02-27T21:16:27.702Z,6.13
2023-02-27T21:18:58.941Z,6.45
2023-02-27T21:21:32.542Z,6.34
2023-02-27T21:24:00.144Z,6.39
2023-02-27T21:26:38.071Z,6.51
2023-02-27T21:29:23.268Z,6.29
2023-02-27T21:31:51.439Z,6.58
2023-02-27T21:34:24.100Z,6.50
2023-02-27T21:36:52.111Z,6.40
2023-02-27T21:39:25.813Z,6.53
2023-02-27T21:41:53.172Z,6.47
2023-02-27T21:44:25.171Z,6.53
2023-02-27T21:46:53.162Z,6.29
2023-02-27T21:49:22.865Z,6.32
2023-02-27T21:51:50.313Z,6.11
2023-02-27T21:54:18.179Z,6.54
2023-02-27T21:56:46.278Z,6.51
2023-02-27T21:59:14.813Z,6.62
2023-02-27T22:01:42.097Z,6.18
2023-02-27T22:04:08.850Z,6.15
2023-02-27T22:06:35.800Z,6.38
2023-02-27T22:09:05.386Z,6.44
2023-02-27T22:11:34.263Z,6.65
2023-02-27T22:14:01.070Z,6.43
2023-02-27T22:16:28.211Z,6.27
2023-02-27T22:18:54.943Z,6.48
2023-02-27T22:21:25.345Z,6.40
2023-02-27T22:23:52.613Z,6.74
2023-02-27T22:26:22.859Z,6.54
2023-02-27T22:28:49.997Z,6.46
2023-02-27T22:31:16.653Z,6.74
2023-02-27T22:33:45.185Z,6.58
2023-02-27T22:36:15.823Z,6.60
2023-02-27T22:38:42.989Z,6.55
2023-02-27T22:41:28.307Z,6.56
2023-02-27T22:43:55.853Z,6.69
2023-02-27T22:46:29.750Z,6.80
2023-02-27T22:48:58.028Z,6.55
2023-02-27T22:51:25.572Z,6.53
2023-02-27T22:53:52.309Z,6.60
2023-02-27T22:56:19.168Z,6.68
2023-02-27T22:58:47.890Z,6.82
2023-02-27T23:01:26.143Z,6.90
2023-02-27T23:03:55.889Z,6.89
2023-02-27T23:06:37.566Z,6.87
2023-02-27T23:09:06.234Z,6.89
2023-02-27T23:11:33.424Z,6.62
2023-02-27T23:14:00.223Z,6.51
2023-02-27T23:16:27.180Z,6.44
2023-02-27T23:18:57.079Z,6.44
2023-02-27T23:21:34.381Z,6.88
2023-02-27T23:24:10.570Z,6.89
2023-02-27T23:26:48.896Z,6.68
2023-02-27T23:29:15.940Z,6.53
2023-02-27T23:31:42.997Z,6.63
2023-02-27T23:34:10.429Z,6.50
2023-02-27T23:36:38.518Z,6.75
2023-02-27T23:39:06.280Z,6.69
2023-02-27T23:41:33.676Z,6.57
2023-02-27T23:44:01.639Z,6.52
2023-02-27T23:46:31.680Z,6.54
2023-02-27T23:48:59.539Z,6.45
2023-02-27T23:51:28.448Z,6.61
2023-02-27T23:53:56.765Z,6.58
2023-02-27T23:56:26.384Z,6.73
2023-02-27T23:58:58.633Z,6.21
